Amunt
Inicio > meteoXarxa
Fes-te'n soci

METEOXARXA

Almenara
Ubicació
Comarca la Plana Baixa
Altitud (msnm) 20
Posició geogràfica 39° 45' 2.16" N, 00° 13' 31.80" W
Model Davis Vantage Pro2
Presa de dades
Font de les dades El temps. Almenara
Estadístiques. Resum
Data Temperatura (ºC) Humitat (%) Pressió (hPa) Vent (km/h) Precipit. (mm)
Mínima Mitjana Màxima Mínima Mitjana Màxima Mínima Mitjana Màxima Predom. Mitjana Ràfega màxima Total Dies de pluja
Mínima Mitjana Màxima Mínima Mitjana Màxima
Últimes dades diàries
16-01-2017 10,2     14,6     19,6 WNW 11,6 38,6 0,0  
15-01-2017 6,9     11,9     16,7 WNW 12,2 43,5 0,0  
14-01-2017 7,7     10,8     14,8 WNW 11,1 43,5 0,0  
13-01-2017 10,3     14,4     17,1 WNW 10,9 46,7 0,0  
12-01-2017 6,6     13,3     22,9 WNW 3,5 19,3 0,0  
11-01-2017 8,8     12,9     16,0 WNW 4,8 29,0 0,0  
10-01-2017 6,3     12,1     16,5 WNW 5,6 38,6 0,0  
09-01-2017 5,7     10,3     15,0 WNW 4,3 25,7 0,0  
08-01-2017 4,2     9,5     16,2 WNW 5,1 17,7 0,0  
07-01-2017 5,1     9,7     13,9 WNW 5,6 17,7 0,0  
06-01-2017 5,8     10,0     14,4 WNW 5,6 17,7 0,0  
05-01-2017 7,7     12,1     16,7 WNW 4,2 17,7 0,0  
04-01-2017 9,2     11,7     16,6 NNW 3,2 24,1 0,0  
03-01-2017 5,7     10,3     15,1 NW 3,2 17,7 0,0  
02-01-2017 4,6     8,8     14,3 WNW 5,5 17,7 0,0  
01-01-2017 5,1     9,6     16,3 WNW 5,1 27,4 0,0  
31-12-2016 7,7     10,9     15,2 WNW 4,7 20,9 0,0  
30-12-2016 4,7     9,1     15,1 WNW 6,3 19,3 0,0  
29-12-2016 4,9     9,6     15,1 WNW 4,3 19,3 0,0  
28-12-2016 7,7     11,4     16,1 WNW 5,8 25,7 0,0  
27-12-2016 7,1     11,1     15,8 WNW 3,5 17,7 0,2  
26-12-2016 7,1     11,7     16,7 WNW 3,2 14,5 0,0  
25-12-2016 8,6     12,3     17,4 WNW 2,7 17,7 0,0  
24-12-2016 8,9     13,2     18,6 WNW 3,9 19,3 0,0  
23-12-2016 8,9     12,8     18,4 WNW 3,2 16,1 0,0  
22-12-2016 9,3     13,3     19,0 WNW 2,9 14,5 0,0  
21-12-2016 7,9     12,4     18,3 NW 2,4 19,3 0,0  
20-12-2016 9,6     13,1     18,4 W 4,3 19,3 0,0  
19-12-2016 9,9     11,0     12,0 NNE 13,4 66,0 34,4  
18-12-2016 10,4     11,7     13,1 NNE 12,2 51,5 41,4  
17-12-2016 12,1     13,8     16,1 NE 14,6 62,8 34,8  
16-12-2016 10,9     13,1     15,8 NE 5,0 38,6 20,4  
Dades del mes en curs (actualitzades fins l'últim dia disponible)
01/2017 4,2 6,9 10,3 11,4 13,9 16,4 22,9   6,3 46,7 0,0  
Últimes dades mensuals
12/2016 4,7 9,3 15,6 12,6 12,0 16,6 19,0 5,3 66,0 156,6 10
11/2016 6,4 11,3 16,9 15,0 13,8 18,9 25,4 6,1 57,9 135,2 10
10/2016 12,2 17,1 19,9 20,4 19,9 23,8 27,2 4,6 33,8 15,0 10
09/2016 15,3 19,9 24,6 23,8 24,7 27,4 33,7 5,8 51,5 27,4 4
08/2016 18,7 22,0 25,7 25,6 24,9 28,7 32,2 6,2 37,0 1,6 5
07/2016 18,4 21,9 24,4 25,6 25,3 28,6 31,4 6,2 35,4 3,4 4
06/2016 14,7 19,0 22,4 22,8 22,8 26,1 32,3 6,5 54,7 0,4 1
05/2016 9,3 14,6 18,6 18,5 17,6 22,1 31,6 6,6 53,1 30,2 9
04/2016 7,3 12,2 16,2 16,1 15,5 19,9 26,7 7,0 54,7 23,2 10
03/2016 6,0 9,7 13,5 13,9 12,8 18,4 26,5 7,0 64,4 6,0 8
02/2016 3,3 9,3 19,1 13,8 12,1 18,4 24,8 8,3 86,9 7,8 7
01/2016 4,5 9,7 14,8 13,6 12,9 17,7 22,2 6,9 62,8 1,0 4
12/2015 6,9 9,7 13,2 13,2 15,8 17,8 21,3 4,2 30,6 0,0 0
Dades de l'any en curs (actualitzades fins l'últim dia disponible)
2017 4,2 6,9 10,3 11,4 13,9 16,4 22,9   6,3 46,7 0,0  
Últimes dades anuals